Time;durP1;ratioP1;P1;durP2;ratioP2;P2;SDS_P1;SDS_P2;PMS_P1;PMS_P2;Temp;Humidity;BMP_temperature;BMP_pressure;BME280_temperature;BME280_humidity;BME280_pressure;Samples;Min_cycle;Max_cycle;Signal;HPM_P1;HPM_P2
2022/10/09 00:01:08;;;;;;;9.38;3.30;;;9.70;99.90;;;;;;5078910;28;20467;-48
2022/10/09 00:03:34;;;;;;;10.43;4.47;;;9.70;99.90;;;;;;5061537;28;20136;-46
2022/10/09 00:06:03;;;;;;;7.30;3.40;;;9.70;99.90;;;;;;5078848;28;20110;-46
2022/10/09 00:08:29;;;;;;;11.05;3.10;;;9.60;99.90;;;;;;5078873;28;20560;-45
2022/10/09 00:10:56;;;;;;;12.07;3.60;;;9.70;99.90;;;;;;5078663;28;20092;-45
2022/10/09 00:13:23;;;;;;;7.78;3.22;;;9.60;99.90;;;;;;5061215;28;20777;-47
2022/10/09 00:15:50;;;;;;;8.55;3.13;;;9.60;99.90;;;;;;5061120;28;20136;-50
2022/10/09 00:18:17;;;;;;;9.65;3.17;;;9.60;99.90;;;;;;5061174;28;20087;-46
2022/10/09 00:20:45;;;;;;;9.18;4.25;;;9.50;99.90;;;;;;5058033;28;20127;-45
2022/10/09 00:23:16;;;;;;;12.15;3.65;;;9.50;99.90;;;;;;5057764;28;20120;-46
2022/10/09 00:25:50;;;;;;;8.25;3.08;;;9.40;99.90;;;;;;5075864;28;20479;-46
2022/10/09 00:28:17;;;;;;;10.35;3.38;;;9.50;99.90;;;;;;5075696;28;20083;-47
2022/10/09 00:30:43;;;;;;;12.73;3.50;;;9.40;99.90;;;;;;5058003;28;20136;-45
2022/10/09 00:33:10;;;;;;;8.07;3.30;;;9.40;99.90;;;;;;5075460;28;20098;-49
2022/10/09 00:35:37;;;;;;;9.85;3.60;;;9.30;99.90;;;;;;5075363;28;20408;-48
2022/10/09 00:38:04;;;;;;;8.02;3.40;;;9.40;99.90;;;;;;5057719;28;20052;-46
2022/10/09 00:40:32;;;;;;;7.82;3.10;;;9.30;99.90;;;;;;5057678;28;20084;-45
2022/10/09 00:42:59;;;;;;;9.68;3.63;;;9.30;99.90;;;;;;5057851;28;20095;-47
2022/10/09 00:45:26;;;;;;;12.40;3.65;;;9.20;99.90;;;;;;5075518;28;20048;-46
2022/10/09 00:47:54;;;;;;;12.55;3.90;;;9.20;99.90;;;;;;5075323;28;20141;-49
2022/10/09 00:50:22;;;;;;;10.68;3.53;;;9.20;99.90;;;;;;5075169;28;20502;-51
2022/10/09 00:52:50;;;;;;;9.63;3.65;;;9.20;99.90;;;;;;5075012;28;20154;-47
2022/10/09 00:55:17;;;;;;;7.88;3.60;;;9.20;99.90;;;;;;5057755;28;20115;-49
2022/10/09 00:57:45;;;;;;;12.02;3.50;;;9.10;99.90;;;;;;5075022;28;20088;-48
2022/10/09 01:00:12;;;;;;;10.80;3.58;;;9.10;99.90;;;;;;5075040;28;20092;-46
2022/10/09 01:02:39;;;;;;;8.30;3.60;;;9.10;99.90;;;;;;5057439;28;20088;-46
2022/10/09 01:05:07;;;;;;;9.70;3.65;;;9.10;99.90;;;;;;5074688;28;20122;-47
2022/10/09 01:07:37;;;;;;;10.65;3.88;;;9.00;99.90;;;;;;5074862;28;20056;-44
2022/10/09 01:10:08;;;;;;;9.73;3.72;;;9.00;99.90;;;;;;5074673;28;20133;-45
2022/10/09 01:12:42;;;;;;;12.38;4.03;;;9.00;99.90;;;;;;5074096;28;20053;-49
2022/10/09 01:15:14;;;;;;;9.95;3.83;;;8.90;99.90;;;;;;5055042;28;20488;-49
2022/10/09 01:17:42;;;;;;;10.45;3.80;;;8.90;99.90;;;;;;5074245;28;20123;-40
2022/10/09 01:20:41;;;;;;;11.10;4.50;;;8.90;99.90;;;;;;5058035;28;20124;-47
2022/10/09 01:23:22;;;;;;;11.77;4.68;;;8.90;99.90;;;;;;5056735;28;20135;-46
2022/10/09 01:25:57;;;;;;;10.98;3.58;;;8.80;99.90;;;;;;5069430;28;20048;-48
2022/10/09 01:28:27;;;;;;;10.70;4.47;;;8.80;99.90;;;;;;5055861;28;20106;-48
2022/10/09 01:30:55;;;;;;;11.05;4.70;;;8.80;99.90;;;;;;5073570;28;20067;-45
2022/10/09 01:33:21;;;;;;;13.07;4.32;;;8.80;99.90;;;;;;5072613;28;20453;-48
2022/10/09 01:35:48;;;;;;;11.98;3.90;;;8.70;99.90;;;;;;5056939;28;20064;-49
2022/10/09 01:38:15;;;;;;;15.10;5.25;;;8.70;99.90;;;;;;5074126;28;20056;-46
2022/10/09 01:40:42;;;;;;;9.68;3.90;;;8.70;99.90;;;;;;5056338;28;20110;-46
2022/10/09 01:43:08;;;;;;;14.75;5.43;;;8.70;99.90;;;;;;5071892;28;20057;-49
2022/10/09 01:45:41;;;;;;;11.25;4.60;;;8.70;99.90;;;;;;5055240;28;20044;-47
2022/10/09 01:48:09;;;;;;;12.32;4.63;;;8.60;99.90;;;;;;5056408;28;20056;-46
2022/10/09 01:50:36;;;;;;;15.75;5.28;;;8.60;99.90;;;;;;5074135;28;20048;-49
2022/10/09 01:53:04;;;;;;;14.18;4.45;;;8.60;99.90;;;;;;5055768;28;20092;-50
2022/10/09 01:55:36;;;;;;;11.77;4.90;;;8.60;99.90;;;;;;5055876;28;20083;-47
2022/10/09 01:58:05;;;;;;;6.25;3.95;;;8.60;99.90;;;;;;5056026;28;20057;-51
2022/10/09 02:00:34;;;;;;;10.15;3.97;;;8.50;99.90;;;;;;5054444;28;20076;-50
2022/10/09 02:03:02;;;;;;;13.93;4.20;;;8.50;99.90;;;;;;5073793;28;20048;-47
2022/10/09 02:05:29;;;;;;;12.48;4.25;;;8.50;99.90;;;;;;5054337;28;20053;-47
2022/10/09 02:07:56;;;;;;;13.02;5.40;;;8.50;99.90;;;;;;5073846;28;20141;-46
2022/10/09 02:10:23;;;;;;;10.07;4.30;;;8.40;99.90;;;;;;5055796;28;20056;-48
2022/10/09 02:12:52;;;;;;;9.57;4.03;;;8.50;99.90;;;;;;5073735;28;20052;-48
2022/10/09 02:15:18;;;;;;;7.95;3.83;;;8.40;99.90;;;;;;5055843;28;20088;-49
2022/10/09 02:17:46;;;;;;;10.25;4.38;;;8.40;99.90;;;;;;5073179;28;20454;-49
2022/10/09 02:20:19;;;;;;;8.95;4.22;;;8.40;99.90;;;;;;5073384;28;20098;-50
2022/10/09 02:22:45;;;;;;;9.65;3.85;;;8.30;99.90;;;;;;5072327;28;20048;-41
2022/10/09 02:25:12;;;;;;;13.75;4.93;;;8.30;99.90;;;;;;5072773;28;20440;-44
2022/10/09 02:27:39;;;;;;;9.15;4.65;;;8.30;99.90;;;;;;5055686;28;20056;-44
2022/10/09 02:30:07;;;;;;;13.65;4.25;;;8.30;99.90;;;;;;5055257;28;20102;-48
2022/10/09 02:32:34;;;;;;;10.45;4.40;;;8.30;99.90;;;;;;5072859;28;20496;-45
2022/10/09 02:35:00;;;;;;;12.98;5.28;;;8.30;99.90;;;;;;5072779;28;20052;-45
2022/10/09 02:37:29;;;;;;;19.27;6.22;;;8.20;99.90;;;;;;5072111;28;20072;-45
2022/10/09 02:39:56;;;;;;;10.68;4.35;;;8.20;99.90;;;;;;5055797;28;20102;-47
2022/10/09 02:42:24;;;;;;;10.13;4.25;;;8.10;99.90;;;;;;5072708;28;20150;-46
2022/10/09 02:44:51;;;;;;;9.57;4.30;;;8.10;99.90;;;;;;5072151;28;20394;-45
2022/10/09 02:47:18;;;;;;;12.50;5.30;;;8.20;99.90;;;;;;5072326;28;20087;-43
2022/10/09 02:49:45;;;;;;;11.07;4.65;;;8.10;99.90;;;;;;5035959;28;20057;-47
2022/10/09 02:52:11;;;;;;;11.88;5.13;;;8.00;99.90;;;;;;5053315;28;20466;-49
2022/10/09 02:54:40;;;;;;;8.88;4.20;;;8.10;99.90;;;;;;5066239;28;20098;-45
2022/10/09 02:57:06;;;;;;;11.52;4.35;;;8.00;99.90;;;;;;5072479;28;20060;-48
2022/10/09 02:59:33;;;;;;;13.52;4.47;;;8.00;99.90;;;;;;5072900;28;20492;-43
2022/10/09 03:02:00;;;;;;;9.85;4.20;;;8.00;99.90;;;;;;5072879;28;20114;-46
2022/10/09 03:04:27;;;;;;;8.20;4.35;;;8.00;99.90;;;;;;5072851;28;20091;-46
2022/10/09 03:06:54;;;;;;;11.77;4.70;;;8.00;99.90;;;;;;5054789;28;20466;-47
2022/10/09 03:09:20;;;;;;;9.38;4.07;;;8.00;99.90;;;;;;5071748;28;20080;-39
2022/10/09 03:11:49;;;;;;;11.80;5.65;;;8.00;99.90;;;;;;5072995;28;20106;-47
2022/10/09 03:14:15;;;;;;;12.68;4.65;;;7.90;99.90;;;;;;5072577;28;20053;-40
2022/10/09 03:16:42;;;;;;;7.82;4.70;;;7.90;99.90;;;;;;5055164;28;20053;-46
2022/10/09 03:19:09;;;;;;;8.50;4.43;;;7.90;99.90;;;;;;5071828;28;20091;-49
2022/10/09 03:21:36;;;;;;;10.23;4.93;;;7.90;99.90;;;;;;5072852;28;20102;-46
2022/10/09 03:24:03;;;;;;;8.32;4.03;;;7.90;99.90;;;;;;5055081;28;20084;-49
2022/10/09 03:26:29;;;;;;;11.65;4.80;;;7.90;99.90;;;;;;5061762;28;20129;-44
2022/10/09 03:28:58;;;;;;;10.50;3.92;;;7.80;99.90;;;;;;5072763;28;20476;-48
2022/10/09 03:31:25;;;;;;;8.55;4.05;;;7.80;99.90;;;;;;5072216;28;20144;-48
2022/10/09 03:33:52;;;;;;;8.23;3.90;;;7.80;99.90;;;;;;5073053;28;20135;-47
2022/10/09 03:36:19;;;;;;;8.77;4.10;;;7.80;99.90;;;;;;5054497;28;20447;-49
2022/10/09 03:38:45;;;;;;;9.52;4.78;;;7.80;99.90;;;;;;5054823;28;20145;-48
2022/10/09 03:41:12;;;;;;;12.63;4.15;;;7.70;99.90;;;;;;5054451;28;20056;-47
2022/10/09 03:43:39;;;;;;;9.15;4.20;;;7.70;99.90;;;;;;5071596;28;20052;-47
2022/10/09 03:46:07;;;;;;;6.57;3.85;;;7.70;99.90;;;;;;5054039;28;20142;-48
2022/10/09 03:48:34;;;;;;;8.90;3.97;;;7.70;99.90;;;;;;5054996;28;20056;-46
2022/10/09 03:51:02;;;;;;;10.23;4.43;;;7.60;99.90;;;;;;5072515;28;20090;-52
2022/10/09 03:53:28;;;;;;;7.88;3.85;;;7.60;99.90;;;;;;5054954;28;20059;-47
2022/10/09 03:55:55;;;;;;;9.07;3.80;;;7.70;99.90;;;;;;5057031;28;20087;-47
2022/10/09 03:58:22;;;;;;;8.27;4.00;;;7.60;99.90;;;;;;5053929;28;20132;-47
2022/10/09 04:00:50;;;;;;;10.68;4.40;;;7.60;99.90;;;;;;5062159;28;20048;-51
2022/10/09 04:03:18;;;;;;;7.03;3.88;;;7.60;99.90;;;;;;5075826;28;20090;-51
2022/10/09 04:05:45;;;;;;;5.32;3.65;;;7.60;99.90;;;;;;5053619;28;20478;-49
2022/10/09 04:08:12;;;;;;;8.00;3.88;;;7.50;99.90;;;;;;5068183;28;20049;-48
2022/10/09 04:10:38;;;;;;;7.60;3.88;;;7.50;99.90;;;;;;5075808;28;20052;-47
2022/10/09 04:13:05;;;;;;;8.90;4.25;;;7.50;99.90;;;;;;5057632;28;20106;-47
2022/10/09 04:15:32;;;;;;;7.80;3.80;;;7.40;99.90;;;;;;5057060;28;20095;-50
2022/10/09 04:17:59;;;;;;;6.88;2.97;;;7.50;99.90;;;;;;5075029;28;20048;-47
2022/10/09 04:20:27;;;;;;;7.47;3.88;;;7.40;99.90;;;;;;5075684;28;20504;-48
2022/10/09 04:22:54;;;;;;;8.25;4.13;;;7.40;99.90;;;;;;5076092;28;20065;-44
2022/10/09 04:25:20;;;;;;;8.65;4.07;;;7.40;99.90;;;;;;5074209;28;20136;-45
2022/10/09 04:27:47;;;;;;;9.80;3.53;;;7.40;99.90;;;;;;5049261;28;20080;-48
2022/10/09 04:30:14;;;;;;;8.90;4.20;;;7.40;99.90;;;;;;5073027;28;20573;-47
2022/10/09 04:32:41;;;;;;;8.55;3.90;;;7.30;99.90;;;;;;5072105;28;20135;-47
2022/10/09 04:35:08;;;;;;;9.38;4.05;;;7.30;99.90;;;;;;5071735;28;20048;-47
2022/10/09 04:37:36;;;;;;;10.15;4.10;;;7.30;99.90;;;;;;5054597;28;20080;-47
2022/10/09 04:40:04;;;;;;;9.50;4.65;;;7.30;99.90;;;;;;5057637;28;20455;-48
2022/10/09 04:42:31;;;;;;;8.25;3.47;;;7.20;99.90;;;;;;5055218;28;20048;-49
2022/10/09 04:44:57;;;;;;;7.90;3.67;;;7.20;99.90;;;;;;5055290;28;20053;-49
2022/10/09 04:47:24;;;;;;;7.57;3.90;;;7.30;99.90;;;;;;5038584;28;20090;-44
2022/10/09 04:49:51;;;;;;;8.52;3.88;;;7.20;99.90;;;;;;5045019;28;20463;-48
2022/10/09 04:52:18;;;;;;;7.00;3.83;;;7.20;99.90;;;;;;5072945;28;20052;-49
2022/10/09 04:54:46;;;;;;;8.30;3.78;;;7.20;99.90;;;;;;5039540;28;20048;-45
2022/10/09 04:57:13;;;;;;;7.45;4.00;;;7.10;99.90;;;;;;5067130;28;20086;-50
2022/10/09 04:59:39;;;;;;;7.50;4.45;;;7.10;99.90;;;;;;5062751;28;20091;-49
2022/10/09 05:02:06;;;;;;;12.90;4.68;;;7.10;99.90;;;;;;5070515;28;20055;-47
2022/10/09 05:04:33;;;;;;;11.52;4.57;;;7.10;99.90;;;;;;5072917;28;20080;-42
2022/10/09 05:07:00;;;;;;;9.05;3.92;;;7.10;99.90;;;;;;5054084;28;20127;-46
2022/10/09 05:09:27;;;;;;;5.68;3.50;;;7.10;99.90;;;;;;5070926;28;20044;-53
2022/10/09 05:11:55;;;;;;;8.90;4.00;;;7.10;99.90;;;;;;5068282;28;20044;-51
2022/10/09 05:14:22;;;;;;;9.90;4.20;;;7.00;99.90;;;;;;5057426;28;20044;-52
2022/10/09 05:16:50;;;;;;;10.95;4.00;;;7.00;99.90;;;;;;5046925;28;20056;-51
2022/10/09 05:19:17;;;;;;;9.68;3.95;;;7.00;99.90;;;;;;5056751;28;20480;-50
2022/10/09 05:21:44;;;;;;;9.02;3.65;;;7.00;99.90;;;;;;5069372;28;20066;-52
2022/10/09 05:24:11;;;;;;;6.60;3.95;;;7.00;99.90;;;;;;5071004;28;20486;-52
2022/10/09 05:26:37;;;;;;;8.80;4.47;;;7.00;99.90;;;;;;5047722;28;20097;-49
2022/10/09 05:29:05;;;;;;;7.80;4.25;;;7.00;99.90;;;;;;5055892;28;20114;-49
2022/10/09 05:31:32;;;;;;;8.35;3.78;;;7.00;99.90;;;;;;5055395;28;20037;-47
2022/10/09 05:33:59;;;;;;;8.73;4.15;;;7.00;99.90;;;;;;5036472;28;20081;-53
2022/10/09 05:36:26;;;;;;;8.48;4.43;;;6.90;99.90;;;;;;5057304;28;20049;-48
2022/10/09 05:38:53;;;;;;;6.28;4.30;;;6.90;99.90;;;;;;5038167;28;20076;-50
2022/10/09 05:41:20;;;;;;;8.85;4.45;;;6.90;99.90;;;;;;5038057;28;20084;-46
2022/10/09 05:43:47;;;;;;;12.93;4.25;;;6.90;99.90;;;;;;5053750;28;20048;-51
2022/10/09 05:46:17;;;;;;;8.23;4.40;;;6.90;99.90;;;;;;5051061;28;20541;-52
2022/10/09 05:48:44;;;;;;;6.88;4.10;;;6.90;99.90;;;;;;5071660;28;20045;-47
2022/10/09 05:51:12;;;;;;;8.60;4.43;;;6.80;99.90;;;;;;5042963;28;20041;-48
2022/10/09 05:53:40;;;;;;;11.75;4.22;;;6.80;99.90;;;;;;5039140;28;20045;-44
2022/10/09 05:56:13;;;;;;;5.97;3.55;;;6.80;99.90;;;;;;5064512;28;20053;-50
2022/10/09 05:58:40;;;;;;;12.30;5.47;;;6.80;99.90;;;;;;5038846;28;20049;-50
2022/10/09 06:01:08;;;;;;;7.32;4.57;;;6.80;99.90;;;;;;5044504;28;20405;-51
2022/10/09 06:03:36;;;;;;;6.50;3.92;;;6.80;99.90;;;;;;5055282;28;20445;-47
2022/10/09 06:06:03;;;;;;;11.43;4.38;;;6.80;99.90;;;;;;5073380;28;20447;-49
2022/10/09 06:08:32;;;;;;;6.40;4.40;;;6.70;99.90;;;;;;5055217;28;20545;-50
2022/10/09 06:10:59;;;;;;;7.75;4.28;;;6.80;99.90;;;;;;5073945;28;20056;-51
2022/10/09 06:13:27;;;;;;;6.40;4.50;;;6.80;99.90;;;;;;5072773;28;20052;-49
2022/10/09 06:15:53;;;;;;;13.52;4.90;;;6.80;99.90;;;;;;5073179;28;20048;-49
2022/10/09 06:18:20;;;;;;;6.55;4.40;;;6.70;99.90;;;;;;5054506;28;20459;-52
2022/10/09 06:20:55;;;;;;;9.93;4.93;;;6.80;99.90;;;;;;5070564;28;20048;-50
2022/10/09 06:23:22;;;;;;;9.05;5.15;;;6.80;99.90;;;;;;5053805;28;20459;-52
2022/10/09 06:25:52;;;;;;;7.40;4.85;;;6.80;99.90;;;;;;5072540;28;20051;-49
2022/10/09 06:28:19;;;;;;;8.32;5.22;;;6.80;99.90;;;;;;5054825;28;20542;-48
2022/10/09 06:30:46;;;;;;;13.82;5.40;;;6.80;99.90;;;;;;5072664;28;20390;-44
2022/10/09 06:33:13;;;;;;;11.60;5.65;;;6.80;99.90;;;;;;5055402;28;20453;-47
2022/10/09 06:35:40;;;;;;;10.60;4.88;;;6.80;99.90;;;;;;5053958;28;20041;-49
2022/10/09 06:38:08;;;;;;;13.32;6.32;;;6.80;99.90;;;;;;5054418;28;20087;-49
2022/10/09 06:40:36;;;;;;;11.55;6.40;;;6.80;99.90;;;;;;5073326;28;20088;-52
2022/10/09 06:43:03;;;;;;;13.23;6.00;;;6.80;99.90;;;;;;5073266;28;20048;-50
2022/10/09 06:45:29;;;;;;;17.60;6.10;;;6.80;99.90;;;;;;5054675;28;20087;-40
2022/10/09 06:47:56;;;;;;;9.85;5.97;;;6.80;99.90;;;;;;5036433;28;20131;-45
2022/10/09 06:50:23;;;;;;;16.40;6.70;;;6.80;99.90;;;;;;5052791;28;20102;-48
2022/10/09 06:52:50;;;;;;;9.63;5.72;;;6.90;99.90;;;;;;5056226;28;20067;-49
2022/10/09 06:55:18;;;;;;;12.68;5.60;;;6.90;99.90;;;;;;5072617;28;20097;-50
2022/10/09 06:57:45;;;;;;;15.27;6.63;;;7.00;99.90;;;;;;5072103;28;20049;-50
2022/10/09 07:00:13;;;;;;;14.65;8.48;;;6.90;99.90;;;;;;5071885;28;20462;-50
2022/10/09 07:02:41;;;;;;;15.13;7.68;;;7.00;99.90;;;;;;5053561;28;20135;-46
2022/10/09 07:05:08;;;;;;;17.17;8.65;;;7.00;99.90;;;;;;5071883;28;20377;-43
2022/10/09 07:07:39;;;;;;;22.98;8.38;;;7.10;99.90;;;;;;5068437;28;20098;-50
2022/10/09 07:10:07;;;;;;;16.73;8.20;;;7.10;99.90;;;;;;5053719;28;20569;-44
2022/10/09 07:12:35;;;;;;;15.98;8.50;;;7.20;99.90;;;;;;5072545;28;20111;-50
2022/10/09 07:15:03;;;;;;;15.70;8.30;;;7.20;99.90;;;;;;5071408;28;20052;-47
2022/10/09 07:17:30;;;;;;;14.68;7.28;;;7.30;99.90;;;;;;5054906;28;20106;-50
2022/10/09 07:19:57;;;;;;;19.15;8.48;;;7.30;99.90;;;;;;5063592;28;20060;-48
2022/10/09 07:22:23;;;;;;;14.77;8.23;;;7.40;99.90;;;;;;5051595;28;20063;-38
2022/10/09 07:24:50;;;;;;;16.92;8.68;;;7.50;99.90;;;;;;5040590;28;20523;-48
2022/10/09 07:27:17;;;;;;;22.50;8.63;;;7.60;99.90;;;;;;5026828;28;20493;-50
2022/10/09 07:29:45;;;;;;;14.77;8.93;;;7.60;99.90;;;;;;5045297;28;20095;-47
2022/10/09 07:32:12;;;;;;;16.80;8.00;;;7.80;99.90;;;;;;5068967;28;20086;-46
2022/10/09 07:34:39;;;;;;;16.92;8.82;;;7.80;99.90;;;;;;5070908;28;20056;-48
2022/10/09 07:37:06;;;;;;;16.60;9.45;;;7.90;99.90;;;;;;5055855;28;20523;-46
2022/10/09 07:39:34;;;;;;;16.13;8.95;;;8.10;99.90;;;;;;5040750;28;20051;-46
2022/10/09 07:42:01;;;;;;;17.48;8.80;;;8.20;99.90;;;;;;5061786;28;20082;-46
2022/10/09 07:44:27;;;;;;;16.73;8.75;;;8.30;99.90;;;;;;5063295;28;20115;-47
2022/10/09 07:46:56;;;;;;;15.43;8.48;;;8.40;99.90;;;;;;5070363;28;20055;-47
2022/10/09 07:49:22;;;;;;;15.25;9.02;;;8.50;99.90;;;;;;5058298;28;20110;-44
2022/10/09 07:51:49;;;;;;;18.50;8.82;;;8.70;99.90;;;;;;5072429;28;20131;-47
2022/10/09 07:54:16;;;;;;;17.02;8.18;;;8.80;99.90;;;;;;5055589;28;20404;-48
2022/10/09 07:56:43;;;;;;;14.50;8.65;;;8.90;99.90;;;;;;5072812;28;20060;-39
2022/10/09 07:59:12;;;;;;;19.23;8.60;;;9.00;99.90;;;;;;5051298;28;20110;-47
2022/10/09 08:01:39;;;;;;;13.95;8.10;;;9.20;99.90;;;;;;5055501;28;20048;-43
2022/10/09 08:04:07;;;;;;;13.70;7.65;;;9.30;99.90;;;;;;5075247;28;20095;-46
2022/10/09 08:06:34;;;;;;;17.17;8.00;;;9.50;99.90;;;;;;5055997;28;20102;-49
2022/10/09 08:09:01;;;;;;;12.88;7.88;;;9.60;99.90;;;;;;5071043;28;20095;-46
2022/10/09 08:11:28;;;;;;;15.75;7.85;;;9.80;99.90;;;;;;5053138;28;20048;-48
2022/10/09 08:13:55;;;;;;;14.93;7.80;;;9.90;99.90;;;;;;5056761;28;20057;-44
2022/10/09 08:16:24;;;;;;;14.70;7.53;;;10.00;99.90;;;;;;5056885;28;20676;-48
2022/10/09 08:18:54;;;;;;;13.45;7.65;;;10.10;99.90;;;;;;5051235;28;20049;-45
2022/10/09 08:21:22;;;;;;;12.43;7.60;;;10.20;99.90;;;;;;5037597;28;20088;-47
2022/10/09 08:23:52;;;;;;;12.32;7.32;;;10.30;99.90;;;;;;5058233;28;20401;-48
2022/10/09 08:26:20;;;;;;;13.80;7.00;;;10.40;99.90;;;;;;5070575;28;20071;-48
2022/10/09 08:28:50;;;;;;;16.70;8.15;;;10.50;99.90;;;;;;5041359;28;20481;-50
2022/10/09 08:31:17;;;;;;;13.60;6.70;;;10.60;99.90;;;;;;5059120;28;20068;-44
2022/10/09 08:33:43;;;;;;;12.18;6.85;;;10.70;99.90;;;;;;5066363;28;20041;-48
2022/10/09 08:36:13;;;;;;;16.85;7.95;;;10.90;99.90;;;;;;5055906;28;20048;-49
2022/10/09 08:38:41;;;;;;;15.73;7.15;;;11.00;99.90;;;;;;5070995;28;20060;-44
2022/10/09 08:41:09;;;;;;;16.30;8.07;;;11.20;99.90;;;;;;5056409;28;20152;-48
2022/10/09 08:43:40;;;;;;;13.50;7.20;;;11.30;99.90;;;;;;5073920;28;20057;-46
2022/10/09 08:46:11;;;;;;;15.52;6.90;;;11.40;99.90;;;;;;5075534;28;20567;-46
2022/10/09 08:48:40;;;;;;;11.98;7.43;;;11.50;99.90;;;;;;5073576;28;20075;-47
2022/10/09 08:51:08;;;;;;;20.60;7.40;;;11.60;99.90;;;;;;5056441;28;20041;-46
2022/10/09 08:53:37;;;;;;;15.65;7.13;;;11.80;99.90;;;;;;5052222;28;20044;-50
2022/10/09 08:56:05;;;;;;;13.57;6.50;;;11.90;99.90;;;;;;5064758;28;20166;-46
2022/10/09 08:58:33;;;;;;;21.92;7.75;;;12.00;99.90;;;;;;5065437;28;20060;-48
2022/10/09 09:01:01;;;;;;;17.73;7.07;;;12.10;99.90;;;;;;5070587;28;20052;-45
2022/10/09 09:03:42;;;;;;;18.35;8.05;;;12.20;99.90;;;;;;5052133;28;20546;-46
2022/10/09 09:06:11;;;;;;;16.08;7.50;;;12.30;99.90;;;;;;5052808;28;20519;-48
2022/10/09 09:08:43;;;;;;;15.98;7.10;;;12.40;99.90;;;;;;5075033;28;20080;-50
2022/10/09 09:11:14;;;;;;;;;;;12.50;99.90;;;;;;5053772;28;20044;-47
2022/10/09 09:13:48;;;;;;;15.00;6.65;;;12.50;99.90;;;;;;5073229;28;19966;-45
2022/10/09 09:16:17;;;;;;;14.70;6.68;;;12.70;99.90;;;;;;5073652;28;20052;-44
2022/10/09 09:18:48;;;;;;;16.33;7.72;;;12.80;99.90;;;;;;5073275;28;20087;-45
2022/10/09 09:21:17;;;;;;;15.57;6.50;;;12.90;99.90;;;;;;5055850;28;20408;-46
2022/10/09 09:23:46;;;;;;;10.57;5.80;;;13.00;99.90;;;;;;5056279;28;20044;-48
2022/10/09 09:26:16;;;;;;;15.60;6.22;;;13.10;99.90;;;;;;5074079;28;20048;-42
2022/10/09 09:28:43;;;;;;;19.95;6.70;;;13.20;99.90;;;;;;5073361;28;20131;-42
2022/10/09 09:31:15;;;;;;;13.90;5.75;;;13.30;99.90;;;;;;5053512;28;20061;-44
2022/10/09 09:33:43;;;;;;;18.17;6.30;;;13.50;99.90;;;;;;5036447;28;20049;-45
2022/10/09 09:36:12;;;;;;;18.98;5.95;;;13.60;99.90;;;;;;5036166;28;20489;-47
2022/10/09 09:38:39;;;;;;;13.35;5.65;;;13.60;99.90;;;;;;5035795;28;20080;-45
2022/10/09 09:41:06;;;;;;;12.55;5.38;;;13.60;99.90;;;;;;5058931;28;20052;-49
2022/10/09 09:43:34;;;;;;;16.92;5.43;;;13.80;99.90;;;;;;5052848;28;20052;-48
2022/10/09 09:46:00;;;;;;;16.50;5.53;;;13.80;99.90;;;;;;5073728;28;20099;-49
2022/10/09 09:48:33;;;;;;;10.18;4.47;;;14.00;99.90;;;;;;5073512;28;20447;-48
2022/10/09 09:50:59;;;;;;;14.50;5.28;;;14.00;99.90;;;;;;5073441;28;20492;-47
2022/10/09 09:53:28;;;;;;;12.43;4.75;;;14.10;99.90;;;;;;5058833;28;20045;-47
2022/10/09 09:55:55;;;;;;;12.88;4.05;;;14.20;99.90;;;;;;5056365;28;20044;-45
2022/10/09 09:58:22;;;;;;;13.00;4.55;;;14.30;99.90;;;;;;5054958;28;20072;-46
2022/10/09 10:00:57;;;;;;;12.10;4.25;;;14.30;99.90;;;;;;5053767;28;20106;-46
2022/10/09 10:03:24;;;;;;;11.70;4.43;;;14.40;99.90;;;;;;5055332;28;20055;-47
2022/10/09 10:05:51;;;;;;;18.70;4.20;;;14.50;99.90;;;;;;5073271;28;20068;-45
2022/10/09 10:08:23;;;;;;;12.98;3.85;;;14.60;99.90;;;;;;5054227;28;20044;-47
2022/10/09 10:10:50;;;;;;;10.73;3.53;;;14.70;99.90;;;;;;5072894;28;20094;-48
2022/10/09 10:13:18;;;;;;;12.50;4.10;;;14.80;99.90;;;;;;5037182;28;20397;-43
2022/10/09 10:15:50;;;;;;;12.27;3.45;;;14.90;99.90;;;;;;5068388;28;20056;-46
2022/10/09 10:18:18;;;;;;;12.57;3.83;;;15.00;99.90;;;;;;5073244;28;20051;-46
2022/10/09 10:20:46;;;;;;;11.82;3.33;;;15.10;99.90;;;;;;5072313;28;20052;-42
2022/10/09 10:23:23;;;;;;;13.43;3.20;;;15.10;99.90;;;;;;5068144;28;20146;-49
2022/10/09 10:25:50;;;;;;;11.07;3.10;;;15.30;99.90;;;;;;5067215;28;20118;-47
2022/10/09 10:28:19;;;;;;;10.18;3.17;;;15.30;99.90;;;;;;5051945;28;20133;-48
2022/10/09 10:30:45;;;;;;;10.38;3.58;;;15.30;99.90;;;;;;5051015;28;20087;-48
2022/10/09 10:33:17;;;;;;;8.15;3.00;;;15.30;99.90;;;;;;5040082;28;20093;-45
2022/10/09 10:35:45;;;;;;;13.82;3.30;;;15.40;99.90;;;;;;5069583;28;20488;-46
2022/10/09 10:38:13;;;;;;;11.82;3.70;;;15.40;99.90;;;;;;5066433;28;20103;-49
2022/10/09 10:40:43;;;;;;;11.85;3.60;;;15.40;99.90;;;;;;5062517;28;20048;-45
2022/10/09 10:43:21;;;;;;;19.27;4.35;;;15.50;99.90;;;;;;5067786;28;20041;-42
2022/10/09 10:45:57;;;;;;;14.23;3.83;;;15.60;99.90;;;;;;5071618;28;20094;-50
2022/10/09 10:48:27;;;;;;;13.70;4.00;;;15.60;99.70;;;;;;5052781;28;20052;-48
2022/10/09 10:51:02;;;;;;;13.38;3.67;;;15.70;99.60;;;;;;5066287;28;20462;-43
2022/10/09 10:53:37;;;;;;;12.93;3.58;;;15.70;98.80;;;;;;5065679;28;20048;-48
2022/10/09 10:56:05;;;;;;;13.10;3.95;;;15.80;98.90;;;;;;5061816;28;20050;-46
2022/10/09 10:58:37;;;;;;;14.45;4.07;;;15.90;98.90;;;;;;5055680;28;20048;-49
2022/10/09 11:01:13;;;;;;;13.48;3.53;;;15.90;98.20;;;;;;5048165;28;20088;-48
2022/10/09 11:03:53;;;;;;;9.10;3.30;;;16.00;97.60;;;;;;5057171;28;20138;-46
2022/10/09 11:06:23;;;;;;;17.67;4.40;;;16.00;96.90;;;;;;5058646;28;20424;-46
2022/10/09 11:08:56;;;;;;;11.65;4.30;;;16.00;97.00;;;;;;5043747;28;20547;-45
2022/10/09 11:11:26;;;;;;;13.63;4.28;;;16.00;97.20;;;;;;5065968;28;20041;-49
2022/10/09 11:13:56;;;;;;;12.15;5.00;;;16.10;97.60;;;;;;5055040;28;20091;-48
2022/10/09 11:16:31;;;;;;;12.48;4.53;;;16.30;97.30;;;;;;5067691;28;20045;-46
2022/10/09 11:19:05;;;;;;;11.45;3.65;;;16.40;96.60;;;;;;5039285;28;20060;-43
2022/10/09 11:21:45;;;;;;;13.77;3.83;;;16.40;96.80;;;;;;5070199;28;20127;-47
2022/10/09 11:24:25;;;;;;;14.73;4.15;;;16.50;96.30;;;;;;5072172;28;20468;-44
2022/10/09 11:26:56;;;;;;;17.13;4.88;;;16.60;95.80;;;;;;5054601;28;20056;-45
2022/10/09 11:29:27;;;;;;;10.15;3.60;;;16.60;95.80;;;;;;5072297;28;20091;-47
2022/10/09 11:31:55;;;;;;;10.27;3.40;;;16.70;95.30;;;;;;5054654;28;20087;-49
2022/10/09 11:34:25;;;;;;;11.25;3.70;;;16.70;94.40;;;;;;5054534;28;20317;-43
2022/10/09 11:36:53;;;;;;;12.48;3.35;;;16.70;94.10;;;;;;5072211;28;20075;-43
2022/10/09 11:39:22;;;;;;;15.43;3.95;;;16.60;93.70;;;;;;5050190;28;20373;-45
2022/10/09 11:41:50;;;;;;;15.48;3.80;;;16.70;93.80;;;;;;5053463;28;20546;-45
2022/10/09 11:44:27;;;;;;;14.35;3.90;;;16.70;94.10;;;;;;5054482;28;20139;-46
2022/10/09 11:46:57;;;;;;;12.02;3.88;;;16.80;93.40;;;;;;5045961;28;20091;-45
2022/10/09 11:49:25;;;;;;;14.10;4.18;;;16.80;93.40;;;;;;5067837;28;20085;-46
2022/10/09 11:51:56;;;;;;;18.00;4.50;;;16.80;93.10;;;;;;5065040;28;20102;-47
2022/10/09 11:54:24;;;;;;;;;;;16.90;92.90;;;;;;5069699;28;20047;-46
2022/10/09 11:56:55;;;;;;;12.98;4.55;;;16.90;92.20;;;;;;5068214;28;19920;-43
2022/10/09 11:59:24;;;;;;;13.30;3.90;;;16.90;93.40;;;;;;5059743;28;20162;-47
2022/10/09 12:01:51;;;;;;;14.13;4.03;;;17.00;93.30;;;;;;5040847;28;20063;-44
2022/10/09 12:04:22;;;;;;;12.15;3.95;;;17.10;93.30;;;;;;5067306;28;20105;-46
2022/10/09 12:06:50;;;;;;;12.25;4.25;;;17.10;91.90;;;;;;5070542;28;20098;-49
2022/10/09 12:09:21;;;;;;;12.77;3.92;;;17.10;92.10;;;;;;5053824;28;20099;-49
2022/10/09 12:11:55;;;;;;;11.80;3.70;;;17.10;91.90;;;;;;5047460;28;20110;-49
2022/10/09 12:14:24;;;;;;;11.52;4.13;;;17.20;91.50;;;;;;5052050;28;20504;-50
2022/10/09 12:16:51;;;;;;;12.88;4.22;;;17.10;91.50;;;;;;5054349;28;20048;-48
2022/10/09 12:19:20;;;;;;;11.52;4.00;;;17.10;92.00;;;;;;5064159;28;20557;-50
2022/10/09 12:21:50;;;;;;;12.25;4.30;;;17.30;91.80;;;;;;5057878;28;20090;-51
2022/10/09 12:24:17;;;;;;;11.07;3.92;;;17.30;91.70;;;;;;5075380;28;20080;-48
2022/10/09 12:26:46;;;;;;;13.77;3.97;;;17.40;91.60;;;;;;5075472;28;20098;-49
2022/10/09 12:29:17;;;;;;;12.82;4.38;;;17.50;91.50;;;;;;5075211;28;20044;-50
2022/10/09 12:31:44;;;;;;;;;;;17.50;91.00;;;;;;5058240;28;20052;-45
2022/10/09 12:34:16;;;;;;;11.18;4.18;;;17.40;90.20;;;;;;5075431;28;20349;-48
2022/10/09 12:36:43;;;;;;;11.25;3.53;;;17.50;90.90;;;;;;5073782;28;20049;-45
2022/10/09 12:39:14;;;;;;;17.77;4.07;;;17.50;90.90;;;;;;5074398;28;20098;-50
2022/10/09 12:41:40;;;;;;;16.27;4.18;;;17.60;90.70;;;;;;5075420;28;20101;-48
2022/10/09 12:44:12;;;;;;;14.98;3.95;;;17.70;90.90;;;;;;5057235;28;20053;-46
2022/10/09 12:46:39;;;;;;;15.57;4.57;;;17.70;89.90;;;;;;5057551;28;20114;-48
2022/10/09 12:49:14;;;;;;;12.15;4.30;;;17.70;90.00;;;;;;5075102;28;20091;-47
2022/10/09 12:51:41;;;;;;;18.08;4.00;;;17.70;90.00;;;;;;5075255;28;20440;-50
2022/10/09 12:54:08;;;;;;;15.25;4.15;;;17.60;88.60;;;;;;5075175;28;20056;-49